Mingo, West Virginia
Current Conditions -  °F | °C
As of 10:51 AM on Saturday 25 Oct 2014 (Local Time) from KEKN Reporting Station
Scattered Clouds Scattered Clouds  
Wind Chill: 12°   Ceiling: Unl
Heat Index: 12°   Visibility: 10mi
Dew Point:   Wind: 0mph
Humidity: 74%   Direction: NA
Pressure: 30.02"   Gusts: NA
Location:  38.5201°N, 80.0382°W
Report Text: KEKN 251451Z AUTO 00000KT 10SM SCT036 12/07 A3002 RMK AO2 SLP179 I3000 T01170072 58008 TSNO
Loading
Personal Weather Stations






























Interactive Weather Map
Tropical Storm Tracking
New forecast layout! Learn more

10-Day Weather Forecast

Advertisements
Track Severe Weather on mobile